createdAt,value
2023-03-06T00:00:53.928Z,49.45
2023-03-06T00:03:23.828Z,47.05
2023-03-06T00:05:51.878Z,48.55
2023-03-06T00:08:19.652Z,55.25
2023-03-06T00:10:47.425Z,45.70
2023-03-06T00:13:19.331Z,47.55
2023-03-06T00:15:48.773Z,51.95
2023-03-06T00:18:17.252Z,50.30
2023-03-06T00:20:45.565Z,52.47
2023-03-06T00:23:13.487Z,48.80
2023-03-06T00:25:47.043Z,50.60
2023-03-06T00:28:16.057Z,48.05
2023-03-06T00:30:46.132Z,45.10
2023-03-06T00:33:14.105Z,53.13
2023-03-06T00:35:43.110Z,53.05
2023-03-06T00:38:13.003Z,51.03
2023-03-06T00:40:40.937Z,50.15
2023-03-06T00:43:08.883Z,51.90
2023-03-06T00:45:37.317Z,55.83
2023-03-06T00:48:05.892Z,51.75
2023-03-06T00:50:35.336Z,48.60
2023-03-06T00:53:03.084Z,42.83
2023-03-06T00:55:31.306Z,42.75
2023-03-06T00:57:59.133Z,52.78
2023-03-06T01:00:29.071Z,46.75
2023-03-06T01:02:56.943Z,49.65
2023-03-06T01:05:25.085Z,49.25
2023-03-06T01:07:53.073Z,44.45
2023-03-06T01:10:21.014Z,43.75
2023-03-06T01:12:48.903Z,48.20
2023-03-06T01:15:16.716Z,41.70
2023-03-06T01:17:44.865Z,43.50
2023-03-06T01:20:17.742Z,44.25
2023-03-06T01:22:45.654Z,42.75
2023-03-06T01:25:13.718Z,44.13
2023-03-06T01:27:41.753Z,52.03
2023-03-06T01:30:12.301Z,45.17
2023-03-06T01:32:40.321Z,47.33
2023-03-06T01:35:09.074Z,47.85
2023-03-06T01:37:38.071Z,49.47
2023-03-06T01:40:08.011Z,46.22
2023-03-06T01:42:35.917Z,49.88
2023-03-06T01:45:08.619Z,50.03
2023-03-06T01:47:36.469Z,51.83
2023-03-06T01:50:05.159Z,48.65
2023-03-06T01:52:48.867Z,49.28
2023-03-06T01:55:25.824Z,54.45
2023-03-06T01:57:57.960Z,44.55
2023-03-06T02:00:28.796Z,46.53
2023-03-06T02:03:12.573Z,45.95
2023-03-06T02:05:42.266Z,41.22
2023-03-06T02:08:13.921Z,41.53
2023-03-06T02:11:07.903Z,42.50
2023-03-06T02:13:36.746Z,38.97
2023-03-06T02:16:04.990Z,46.17
2023-03-06T02:18:34.489Z,38.50
2023-03-06T02:21:06.753Z,46.50
2023-03-06T02:23:57.002Z,46.22
2023-03-06T02:26:27.179Z,38.30
2023-03-06T02:28:57.740Z,43.60
2023-03-06T02:31:29.221Z,45.53
2023-03-06T02:34:02.450Z,40.50
2023-03-06T02:36:33.803Z,41.27
2023-03-06T02:39:02.401Z,39.50
2023-03-06T02:41:30.221Z,41.10
2023-03-06T02:43:58.168Z,39.28
2023-03-06T02:46:26.112Z,44.38
2023-03-06T02:48:54.122Z,41.30
2023-03-06T02:51:23.342Z,41.15
2023-03-06T02:53:51.260Z,43.50
2023-03-06T02:56:20.057Z,47.85
2023-03-06T02:58:48.105Z,44.33
2023-03-06T03:01:16.210Z,43.03
2023-03-06T03:03:44.873Z,42.28
2023-03-06T03:06:13.408Z,44.70
2023-03-06T03:08:41.752Z,42.80
2023-03-06T03:11:10.694Z,43.03
2023-03-06T03:13:41.221Z,44.72
2023-03-06T03:16:15.738Z,44.97
2023-03-06T03:18:53.410Z,44.33
2023-03-06T03:21:23.435Z,36.05
2023-03-06T03:23:51.298Z,43.65
2023-03-06T03:26:22.661Z,43.60
2023-03-06T03:29:13.978Z,45.47
2023-03-06T03:31:41.965Z,45.22
2023-03-06T03:34:10.257Z,47.70
2023-03-06T03:36:40.701Z,40.75
2023-03-06T03:39:10.555Z,40.75
2023-03-06T03:41:38.981Z,41.53
2023-03-06T03:44:09.992Z,44.72
2023-03-06T03:46:38.708Z,38.83
2023-03-06T03:49:11.558Z,44.20
2023-03-06T03:51:39.626Z,40.40
2023-03-06T03:54:07.706Z,39.83
2023-03-06T03:56:42.003Z,40.83
2023-03-06T03:59:16.163Z,37.13
2023-03-06T04:01:57.727Z,42.83
2023-03-06T04:04:25.960Z,43.47
2023-03-06T04:06:54.170Z,41.17
2023-03-06T04:09:22.239Z,39.90
2023-03-06T04:11:50.217Z,43.40
2023-03-06T04:14:18.110Z,44.03
2023-03-06T04:16:46.036Z,43.90
2023-03-06T04:19:13.908Z,39.05
2023-03-06T04:21:41.744Z,42.35
2023-03-06T04:24:10.128Z,42.78
2023-03-06T04:26:38.013Z,36.55
2023-03-06T04:29:06.898Z,42.67
2023-03-06T04:31:34.983Z,42.13
2023-03-06T04:34:02.949Z,49.80
2023-03-06T04:36:33.717Z,40.58
2023-03-06T04:39:06.515Z,41.10
2023-03-06T04:41:35.875Z,44.13
2023-03-06T04:44:04.811Z,46.55
2023-03-06T04:46:32.830Z,39.03
2023-03-06T04:49:00.659Z,38.08
2023-03-06T04:51:28.610Z,43.22
2023-03-06T04:53:56.520Z,40.85
2023-03-06T04:56:24.380Z,38.35
2023-03-06T04:58:52.223Z,48.28
2023-03-06T05:01:20.230Z,41.60
2023-03-06T05:03:49.782Z,44.17
2023-03-06T05:06:17.767Z,36.10
2023-03-06T05:08:45.710Z,48.75
2023-03-06T05:11:13.598Z,36.72
2023-03-06T05:13:41.338Z,44.78
2023-03-06T05:16:09.514Z,41.25
2023-03-06T05:18:37.430Z,39.65
2023-03-06T05:21:06.386Z,39.47
2023-03-06T05:23:36.500Z,46.75
2023-03-06T05:26:14.927Z,41.17
2023-03-06T05:28:42.950Z,47.05
2023-03-06T05:31:10.904Z,36.28
2023-03-06T05:33:38.810Z,38.47
2023-03-06T05:36:09.337Z,41.70
2023-03-06T05:38:37.432Z,40.28
2023-03-06T05:41:05.402Z,43.70
2023-03-06T05:43:33.279Z,42.15
2023-03-06T05:46:06.787Z,45.47
2023-03-06T05:48:35.940Z,47.47
2023-03-06T05:51:05.160Z,52.05
2023-03-06T05:53:33.323Z,45.85
2023-03-06T05:56:04.646Z,42.67
2023-03-06T05:58:34.693Z,45.40
2023-03-06T06:01:28.674Z,45.17
2023-03-06T06:03:56.507Z,46.00
2023-03-06T06:06:24.377Z,42.40
2023-03-06T06:08:52.214Z,43.42
2023-03-06T06:11:20.995Z,49.63
2023-03-06T06:13:49.594Z,54.00
2023-03-06T06:16:19.198Z,52.15
2023-03-06T06:18:47.266Z,48.05
2023-03-06T06:21:15.318Z,50.30
2023-03-06T06:23:43.509Z,56.95
2023-03-06T06:26:11.623Z,57.47
2023-03-06T06:28:39.542Z,53.70
2023-03-06T06:31:09.878Z,56.03
2023-03-06T06:33:38.532Z,57.88
2023-03-06T06:36:14.644Z,65.80
2023-03-06T06:38:43.456Z,72.00
2023-03-06T06:41:38.844Z,64.75
2023-03-06T06:43:59.852Z,60.10
2023-03-06T06:47:10.872Z,62.00
2023-03-06T06:49:16.376Z,53.55
2023-03-06T06:51:44.705Z,59.38
2023-03-06T06:54:12.696Z,52.55
2023-03-06T06:56:40.547Z,58.53
2023-03-06T06:59:16.429Z,54.55
2023-03-06T07:01:45.476Z,51.20
2023-03-06T07:04:14.371Z,50.42
2023-03-06T07:06:43.081Z,46.92
2023-03-06T07:09:12.441Z,50.50
2023-03-06T07:11:41.445Z,51.47
2023-03-06T07:14:09.227Z,56.15
2023-03-06T07:16:37.219Z,50.47
2023-03-06T07:19:04.982Z,57.08
2023-03-06T07:21:32.955Z,56.67
2023-03-06T07:24:01.476Z,55.13
2023-03-06T07:26:29.328Z,60.72
2023-03-06T07:28:57.413Z,49.83
2023-03-06T07:31:27.778Z,49.17
2023-03-06T07:33:56.165Z,48.70
2023-03-06T07:36:24.841Z,48.90
2023-03-06T07:38:52.708Z,47.75
2023-03-06T07:41:22.528Z,47.70
2023-03-06T07:43:50.998Z,50.25
2023-03-06T07:46:19.581Z,48.80
2023-03-06T07:48:47.448Z,48.60
2023-03-06T07:51:20.777Z,52.97
2023-03-06T07:53:49.295Z,50.78
2023-03-06T07:56:17.391Z,50.90
2023-03-06T07:58:47.425Z,51.95
2023-03-06T08:01:17.897Z,54.17
2023-03-06T08:03:46.808Z,57.20
2023-03-06T08:06:17.321Z,52.72
2023-03-06T08:08:46.784Z,52.33
2023-03-06T08:11:16.948Z,52.63
2023-03-06T08:13:45.029Z,56.80
2023-03-06T08:16:14.437Z,58.60
2023-03-06T08:18:45.059Z,49.08
2023-03-06T08:21:16.547Z,54.90
2023-03-06T08:23:45.044Z,50.80
2023-03-06T08:26:16.748Z,58.63
2023-03-06T08:28:45.139Z,54.97
2023-03-06T08:31:27.985Z,52.33
2023-03-06T08:33:58.368Z,52.58
2023-03-06T08:36:26.348Z,52.72
2023-03-06T08:38:54.362Z,54.50
2023-03-06T08:41:23.163Z,51.70
2023-03-06T08:43:51.296Z,53.67
2023-03-06T08:46:21.063Z,53.25
2023-03-06T08:48:49.490Z,46.70
2023-03-06T08:51:18.341Z,60.80
2023-03-06T08:53:46.845Z,52.17
2023-03-06T08:56:26.876Z,57.00
2023-03-06T08:58:56.040Z,62.80
2023-03-06T09:01:27.315Z,59.20
2023-03-06T09:03:57.632Z,53.63
2023-03-06T09:06:27.109Z,58.75
2023-03-06T09:08:55.347Z,51.15
2023-03-06T09:11:24.957Z,48.22
2023-03-06T09:13:54.017Z,52.28
2023-03-06T09:16:22.231Z,57.03
2023-03-06T09:18:53.012Z,56.47
2023-03-06T09:21:22.551Z,58.60
2023-03-06T09:23:50.923Z,55.03
2023-03-06T09:26:18.929Z,61.00
2023-03-06T09:28:47.320Z,61.42
2023-03-06T09:31:18.768Z,54.63
2023-03-06T09:33:48.354Z,55.13
2023-03-06T09:36:22.793Z,56.35
2023-03-06T09:38:50.960Z,58.85
2023-03-06T09:41:21.293Z,56.25
2023-03-06T09:43:55.033Z,52.63
2023-03-06T09:46:58.520Z,51.17
2023-03-06T09:49:42.374Z,58.65
2023-03-06T09:52:25.464Z,52.00
2023-03-06T09:54:57.476Z,54.08
2023-03-06T09:57:35.645Z,48.35
2023-03-06T10:00:14.729Z,49.92
2023-03-06T10:03:01.025Z,45.45
2023-03-06T10:05:43.094Z,50.67
2023-03-06T10:08:30.543Z,50.28
2023-03-06T10:11:13.480Z,47.15
2023-03-06T10:13:48.374Z,49.33
2023-03-06T10:16:30.255Z,45.30
2023-03-06T10:19:04.620Z,44.50
2023-03-06T10:21:50.385Z,43.47
2023-03-06T10:25:00.031Z,39.15
2023-03-06T10:27:49.230Z,46.53
2023-03-06T10:30:38.688Z,43.70
2023-03-06T10:33:36.495Z,47.88
2023-03-06T10:36:04.939Z,39.80
2023-03-06T10:38:32.932Z,38.33
2023-03-06T10:41:12.693Z,41.08
2023-03-06T10:43:43.325Z,41.53
2023-03-06T10:46:14.765Z,40.58
2023-03-06T10:48:42.910Z,47.85
2023-03-06T10:51:21.375Z,43.47
2023-03-06T10:53:51.264Z,43.55
2023-03-06T10:56:29.651Z,44.22
2023-03-06T10:59:12.499Z,41.22
2023-03-06T11:01:42.397Z,44.15
2023-03-06T11:04:30.622Z,42.20
2023-03-06T11:07:17.407Z,33.15
2023-03-06T11:09:57.564Z,38.90
2023-03-06T11:12:32.633Z,35.85
2023-03-06T11:15:17.463Z,37.25
2023-03-06T11:18:05.600Z,38.95
2023-03-06T11:20:51.412Z,39.97
2023-03-06T11:23:41.385Z,46.28
2023-03-06T11:26:18.250Z,36.53
2023-03-06T11:29:23.470Z,37.85
2023-03-06T11:32:05.791Z,39.05
2023-03-06T11:34:41.053Z,35.67
2023-03-06T11:37:20.774Z,39.83
2023-03-06T11:40:26.854Z,35.05
2023-03-06T11:43:05.645Z,36.00
2023-03-06T11:45:46.610Z,36.92
2023-03-06T11:48:14.489Z,34.25
2023-03-06T11:51:00.714Z,42.53
2023-03-06T11:53:39.525Z,36.33
2023-03-06T11:56:19.905Z,39.95
2023-03-06T11:59:29.259Z,37.55
2023-03-06T12:02:22.479Z,38.13
2023-03-06T12:05:21.335Z,38.08
2023-03-06T12:07:51.744Z,38.00
2023-03-06T12:10:38.863Z,35.75
2023-03-06T12:13:46.339Z,30.67
2023-03-06T12:16:52.625Z,42.97
2023-03-06T12:19:29.367Z,32.15
2023-03-06T12:22:31.181Z,31.80
2023-03-06T12:25:28.664Z,34.85
2023-03-06T12:28:15.361Z,34.70
2023-03-06T12:30:50.732Z,34.28
2023-03-06T12:33:41.035Z,31.20
2023-03-06T12:36:39.525Z,33.00
2023-03-06T12:39:10.536Z,36.55
2023-03-06T12:41:53.680Z,33.03
2023-03-06T12:44:39.590Z,31.00
2023-03-06T12:47:14.990Z,32.72
2023-03-06T12:49:48.528Z,27.00
2023-03-06T12:52:30.380Z,29.10
2023-03-06T12:55:04.794Z,25.55
2023-03-06T12:57:32.790Z,29.15
2023-03-06T13:00:01.016Z,24.65
2023-03-06T13:02:59.378Z,27.05
2023-03-06T13:06:01.241Z,25.35
2023-03-06T13:08:46.862Z,23.80
2023-03-06T13:11:34.613Z,25.70
2023-03-06T13:14:20.166Z,31.50
2023-03-06T13:16:48.352Z,24.30
2023-03-06T13:19:25.920Z,22.23
2023-03-06T13:21:56.609Z,26.80
2023-03-06T13:24:27.286Z,24.75
2023-03-06T13:27:06.084Z,29.92
2023-03-06T13:29:36.847Z,30.10
2023-03-06T13:32:12.194Z,24.95
2023-03-06T13:34:48.797Z,27.02
2023-03-06T13:37:20.161Z,29.25
2023-03-06T13:39:59.805Z,27.75
2023-03-06T13:42:27.704Z,27.85
2023-03-06T13:44:57.587Z,28.63
2023-03-06T13:47:59.127Z,32.05
2023-03-06T13:50:42.477Z,27.55
2023-03-06T13:53:32.336Z,27.85
2023-03-06T13:56:03.930Z,26.80
2023-03-06T13:58:59.723Z,29.55
2023-03-06T14:01:53.858Z,29.48
2023-03-06T14:04:55.360Z,32.42
2023-03-06T14:07:35.367Z,28.15
2023-03-06T14:10:24.151Z,27.98
2023-03-06T14:12:52.318Z,30.10
2023-03-06T14:15:52.380Z,25.40
2023-03-06T14:18:24.104Z,32.97
2023-03-06T14:20:57.197Z,29.48
2023-03-06T14:23:35.639Z,28.90
2023-03-06T14:26:25.831Z,32.53
2023-03-06T14:28:53.699Z,30.50
2023-03-06T14:31:23.245Z,30.75
2023-03-06T14:33:56.926Z,33.15
2023-03-06T14:36:34.280Z,33.25
2023-03-06T14:39:11.078Z,30.75
2023-03-06T14:41:39.904Z,32.50
2023-03-06T14:44:20.710Z,27.23
2023-03-06T14:46:56.250Z,27.67
2023-03-06T14:49:26.591Z,28.38
2023-03-06T14:52:02.035Z,27.73
2023-03-06T14:54:37.080Z,29.08
2023-03-06T14:57:14.787Z,25.98
2023-03-06T14:59:54.735Z,30.48
2023-03-06T15:02:26.694Z,29.02
2023-03-06T15:05:06.409Z,25.70
2023-03-06T15:07:35.368Z,23.90
2023-03-06T15:10:05.018Z,32.40
2023-03-06T15:12:35.441Z,32.17
2023-03-06T15:15:28.052Z,27.88
2023-03-06T15:17:56.056Z,32.30
2023-03-06T15:20:44.674Z,28.58
2023-03-06T15:23:16.589Z,23.85
2023-03-06T15:25:53.294Z,31.65
2023-03-06T15:28:30.042Z,24.75
2023-03-06T15:31:22.373Z,27.40
2023-03-06T15:34:23.897Z,24.60
2023-03-06T15:36:56.988Z,24.45
2023-03-06T15:39:36.199Z,22.40
2023-03-06T15:42:25.893Z,23.02
2023-03-06T15:45:03.731Z,19.08
2023-03-06T15:47:31.950Z,20.83
2023-03-06T15:49:59.848Z,27.50
2023-03-06T15:52:27.965Z,19.05
2023-03-06T15:54:55.858Z,16.83
2023-03-06T15:57:27.009Z,17.08
2023-03-06T15:59:56.381Z,17.52
2023-03-06T16:02:24.831Z,17.38
2023-03-06T16:04:53.850Z,17.50
2023-03-06T16:07:21.748Z,18.33
2023-03-06T16:09:49.660Z,20.30
2023-03-06T16:12:21.834Z,17.98
2023-03-06T16:14:49.918Z,21.83
2023-03-06T16:17:18.256Z,19.33
2023-03-06T16:19:46.099Z,18.67
2023-03-06T16:22:14.616Z,20.00
2023-03-06T16:24:43.535Z,21.15
2023-03-06T16:27:19.178Z,16.08
2023-03-06T16:29:47.190Z,20.75
2023-03-06T16:32:15.226Z,21.02
2023-03-06T16:34:43.219Z,20.55
2023-03-06T16:37:13.468Z,19.92
2023-03-06T16:39:41.416Z,21.33
2023-03-06T16:42:09.342Z,20.05
2023-03-06T16:44:37.238Z,19.70
2023-03-06T16:47:05.261Z,20.00
2023-03-06T16:49:33.034Z,23.85
2023-03-06T16:52:01.044Z,20.58
2023-03-06T16:54:28.949Z,29.27
2023-03-06T16:56:56.924Z,31.92
2023-03-06T16:59:25.481Z,28.77
2023-03-06T17:01:53.531Z,30.55
2023-03-06T17:04:21.368Z,29.98
2023-03-06T17:06:49.305Z,31.73
2023-03-06T17:09:17.085Z,32.78
2023-03-06T17:11:46.962Z,31.40
2023-03-06T17:14:14.903Z,30.55
2023-03-06T17:16:42.864Z,30.17
2023-03-06T17:19:15.339Z,33.53
2023-03-06T17:21:44.010Z,29.33
2023-03-06T17:24:11.857Z,35.08
2023-03-06T17:26:40.283Z,22.75
2023-03-06T17:29:09.394Z,27.02
2023-03-06T17:31:37.309Z,30.67
2023-03-06T17:34:05.215Z,24.95
2023-03-06T17:36:33.239Z,23.25
2023-03-06T17:39:02.990Z,22.13
2023-03-06T17:41:32.993Z,26.50
2023-03-06T17:44:01.989Z,31.70
2023-03-06T17:46:31.943Z,23.80
2023-03-06T17:48:59.923Z,29.23
2023-03-06T17:51:27.748Z,25.58
2023-03-06T17:53:55.892Z,27.67
2023-03-06T17:56:23.988Z,24.98
2023-03-06T17:58:52.625Z,30.40
2023-03-06T18:01:23.798Z,25.42
2023-03-06T18:03:52.179Z,27.25
2023-03-06T18:06:21.035Z,26.30
2023-03-06T18:08:52.287Z,25.17
2023-03-06T18:11:21.488Z,27.60
2023-03-06T18:13:49.529Z,27.85
2023-03-06T18:16:20.713Z,26.83
2023-03-06T18:18:52.119Z,25.55
2023-03-06T18:21:20.675Z,28.48
2023-03-06T18:23:48.694Z,26.02
2023-03-06T18:26:18.802Z,29.40
2023-03-06T18:28:54.824Z,35.30
2023-03-06T18:31:32.955Z,34.03
2023-03-06T18:34:09.903Z,33.22
2023-03-06T18:36:39.209Z,35.95
2023-03-06T18:39:09.797Z,35.22
2023-03-06T18:41:38.562Z,36.40
2023-03-06T18:44:06.493Z,36.13
2023-03-06T18:46:36.797Z,39.88
2023-03-06T18:49:06.258Z,28.90
2023-03-06T18:51:34.782Z,38.97
2023-03-06T18:54:06.389Z,30.30
2023-03-06T18:56:34.863Z,32.47
2023-03-06T18:59:05.205Z,38.15
2023-03-06T19:01:33.795Z,35.83
2023-03-06T19:04:03.063Z,41.30
2023-03-06T19:06:31.968Z,37.33
2023-03-06T19:09:06.463Z,38.97
2023-03-06T19:11:35.634Z,34.13
2023-03-06T19:14:03.745Z,44.97
2023-03-06T19:16:32.104Z,37.92
2023-03-06T19:19:00.072Z,38.42
2023-03-06T19:21:28.774Z,35.80
2023-03-06T19:23:57.454Z,33.33
2023-03-06T19:26:26.677Z,34.95
2023-03-06T19:28:54.662Z,34.55
2023-03-06T19:31:27.563Z,31.38
2023-03-06T19:33:59.285Z,26.85
2023-03-06T19:36:33.694Z,28.27
2023-03-06T19:39:04.440Z,28.15
2023-03-06T19:41:33.369Z,30.67
2023-03-06T19:44:06.150Z,39.45
2023-03-06T19:46:36.355Z,30.23
2023-03-06T19:49:11.841Z,27.42
2023-03-06T19:51:40.126Z,39.90
2023-03-06T19:54:08.016Z,31.67
2023-03-06T19:56:35.825Z,28.90
2023-03-06T19:59:03.808Z,34.95
2023-03-06T20:01:31.686Z,29.05
2023-03-06T20:03:59.971Z,29.25
2023-03-06T20:06:30.442Z,30.83
2023-03-06T20:08:58.893Z,36.75
2023-03-06T20:11:32.869Z,28.25
2023-03-06T20:14:03.617Z,34.90
2023-03-06T20:16:32.578Z,30.77
2023-03-06T20:19:01.547Z,35.03
2023-03-06T20:21:32.591Z,31.73
2023-03-06T20:24:00.411Z,35.17
2023-03-06T20:26:29.254Z,31.67
2023-03-06T20:28:58.077Z,35.53
2023-03-06T20:31:28.618Z,34.35
2023-03-06T20:33:59.209Z,38.80
2023-03-06T20:36:32.268Z,35.00
2023-03-06T20:39:01.351Z,44.30
2023-03-06T20:41:30.989Z,39.97
2023-03-06T20:44:00.945Z,43.85
2023-03-06T20:46:30.081Z,36.35
2023-03-06T20:48:59.693Z,40.40
2023-03-06T20:51:31.784Z,39.25
2023-03-06T20:54:02.984Z,42.38
2023-03-06T20:56:33.547Z,35.08
2023-03-06T20:59:02.101Z,35.92
2023-03-06T21:01:35.957Z,34.97
2023-03-06T21:04:05.138Z,38.67
2023-03-06T21:06:33.553Z,43.40
2023-03-06T21:09:04.214Z,46.45
2023-03-06T21:11:39.426Z,44.85
2023-03-06T21:14:07.863Z,41.83
2023-03-06T21:16:36.418Z,45.30
2023-03-06T21:19:05.338Z,41.35
2023-03-06T21:21:35.176Z,43.17
2023-03-06T21:24:03.201Z,48.30
2023-03-06T21:26:34.019Z,44.35
2023-03-06T21:29:02.923Z,44.92
2023-03-06T21:31:33.528Z,40.80
2023-03-06T21:34:04.482Z,39.58
2023-03-06T21:36:33.439Z,35.47
2023-03-06T21:39:01.557Z,45.05
2023-03-06T21:41:30.556Z,43.55
2023-03-06T21:44:01.225Z,39.55
2023-03-06T21:46:29.913Z,42.72
2023-03-06T21:48:58.300Z,41.15
2023-03-06T21:51:26.949Z,41.70
2023-03-06T21:53:55.514Z,41.50
2023-03-06T21:56:25.833Z,43.65
2023-03-06T21:58:54.425Z,48.35
2023-03-06T22:01:25.468Z,44.22
2023-03-06T22:03:54.374Z,46.08
2023-03-06T22:06:25.577Z,45.40
2023-03-06T22:08:55.551Z,45.15
2023-03-06T22:11:24.928Z,47.55
2023-03-06T22:13:55.959Z,41.67
2023-03-06T22:16:24.049Z,44.80
2023-03-06T22:18:52.542Z,39.45
2023-03-06T22:21:22.090Z,45.83
2023-03-06T22:23:54.466Z,42.53
2023-03-06T22:26:22.516Z,44.47
2023-03-06T22:28:50.862Z,42.38
2023-03-06T22:31:21.168Z,39.33
2023-03-06T22:33:51.432Z,41.97
2023-03-06T22:36:20.401Z,41.60
2023-03-06T22:38:48.974Z,46.08
2023-03-06T22:41:17.908Z,45.55
2023-03-06T22:43:45.989Z,44.13
2023-03-06T22:46:16.738Z,42.25
2023-03-06T22:48:44.982Z,44.28
2023-03-06T22:51:15.754Z,44.85
2023-03-06T22:53:44.463Z,42.10
2023-03-06T22:56:15.458Z,46.38
2023-03-06T22:58:44.987Z,45.13
2023-03-06T23:01:15.645Z,44.03
2023-03-06T23:03:45.967Z,49.15
2023-03-06T23:06:16.976Z,50.83
2023-03-06T23:08:52.160Z,46.90
2023-03-06T23:11:20.942Z,45.25
2023-03-06T23:14:07.386Z,47.63
2023-03-06T23:16:53.872Z,50.55
2023-03-06T23:19:40.250Z,40.95
2023-03-06T23:22:26.400Z,42.95
2023-03-06T23:25:13.027Z,44.67
2023-03-06T23:27:41.343Z,40.25
2023-03-06T23:30:09.872Z,45.20
2023-03-06T23:32:38.051Z,42.47
2023-03-06T23:35:10.037Z,45.03
2023-03-06T23:37:38.000Z,47.70
2023-03-06T23:40:08.148Z,39.53
2023-03-06T23:42:36.180Z,42.65
2023-03-06T23:45:04.352Z,44.20
2023-03-06T23:47:33.862Z,42.30
2023-03-06T23:50:01.759Z,44.25
2023-03-06T23:52:29.652Z,45.97
2023-03-06T23:54:57.411Z,44.38
2023-03-06T23:57:25.329Z,43.60
2023-03-06T23:59:53.553Z,36.60
